sensor_id;sensor_type;location;lat;lon;timestamp;temperature;humidity
26099;DHT22;13860;52.370;6.764;2022-12-13T00:01:54;-2.40;81.90
26099;DHT22;13860;52.370;6.764;2022-12-13T00:04:58;-2.50;81.80
26099;DHT22;13860;52.370;6.764;2022-12-13T00:08:01;-2.50;81.80
26099;DHT22;13860;52.370;6.764;2022-12-13T00:11:07;-2.50;81.90
26099;DHT22;13860;52.370;6.764;2022-12-13T00:14:12;-2.50;81.90
26099;DHT22;13860;52.370;6.764;2022-12-13T00:17:18;-2.50;81.80
26099;DHT22;13860;52.370;6.764;2022-12-13T00:20:22;-2.50;81.90
26099;DHT22;13860;52.370;6.764;2022-12-13T00:23:27;-2.50;81.80
26099;DHT22;13860;52.370;6.764;2022-12-13T00:26:31;-2.50;81.80
26099;DHT22;13860;52.370;6.764;2022-12-13T00:29:35;-2.50;81.80
26099;DHT22;13860;52.370;6.764;2022-12-13T00:32:41;-2.50;81.80
26099;DHT22;13860;52.370;6.764;2022-12-13T00:35:45;-2.60;81.80
26099;DHT22;13860;52.370;6.764;2022-12-13T00:38:48;-2.60;81.90
26099;DHT22;13860;52.370;6.764;2022-12-13T00:42:00;-2.60;81.80
26099;DHT22;13860;52.370;6.764;2022-12-13T00:45:05;-2.60;81.80
26099;DHT22;13860;52.370;6.764;2022-12-13T00:48:11;-2.60;81.90
26099;DHT22;13860;52.370;6.764;2022-12-13T00:51:15;-2.70;81.80
26099;DHT22;13860;52.370;6.764;2022-12-13T00:54:19;-2.70;81.80
26099;DHT22;13860;52.370;6.764;2022-12-13T00:57:23;-2.70;81.80
26099;DHT22;13860;52.370;6.764;2022-12-13T01:00:27;-2.70;81.80
26099;DHT22;13860;52.370;6.764;2022-12-13T01:03:32;-2.70;81.80
26099;DHT22;13860;52.370;6.764;2022-12-13T01:06:38;-2.70;81.90
26099;DHT22;13860;52.370;6.764;2022-12-13T01:09:42;-2.70;81.80
26099;DHT22;13860;52.370;6.764;2022-12-13T01:12:46;-2.70;81.90
26099;DHT22;13860;52.370;6.764;2022-12-13T01:15:50;-2.70;81.90
26099;DHT22;13860;52.370;6.764;2022-12-13T01:18:56;-2.70;81.80
26099;DHT22;13860;52.370;6.764;2022-12-13T01:22:02;-2.80;81.80
26099;DHT22;13860;52.370;6.764;2022-12-13T01:25:06;-2.80;81.80
26099;DHT22;13860;52.370;6.764;2022-12-13T01:28:10;-2.80;81.80
26099;DHT22;13860;52.370;6.764;2022-12-13T01:31:15;-2.80;81.80
26099;DHT22;13860;52.370;6.764;2022-12-13T01:34:23;-2.80;81.80
26099;DHT22;13860;52.370;6.764;2022-12-13T01:37:27;-2.80;81.80
26099;DHT22;13860;52.370;6.764;2022-12-13T01:40:31;-2.80;81.80
26099;DHT22;13860;52.370;6.764;2022-12-13T01:43:57;-2.90;81.70
26099;DHT22;13860;52.370;6.764;2022-12-13T01:47:03;-2.90;81.70
26099;DHT22;13860;52.370;6.764;2022-12-13T01:50:12;-2.90;81.80
26099;DHT22;13860;52.370;6.764;2022-12-13T01:53:20;-2.90;81.70
26099;DHT22;13860;52.370;6.764;2022-12-13T01:56:28;-2.90;81.70
26099;DHT22;13860;52.370;6.764;2022-12-13T01:59:34;-2.90;81.80
26099;DHT22;13860;52.370;6.764;2022-12-13T02:02:39;-3.00;81.70
26099;DHT22;13860;52.370;6.764;2022-12-13T02:05:51;-2.90;81.70
26099;DHT22;13860;52.370;6.764;2022-12-13T02:08:56;-2.90;81.70
26099;DHT22;13860;52.370;6.764;2022-12-13T02:12:00;-3.00;81.80
26099;DHT22;13860;52.370;6.764;2022-12-13T02:15:07;-3.00;81.70
26099;DHT22;13860;52.370;6.764;2022-12-13T02:18:24;-3.00;81.80
26099;DHT22;13860;52.370;6.764;2022-12-13T02:21:34;-3.00;81.70
26099;DHT22;13860;52.370;6.764;2022-12-13T02:24:53;-3.00;81.80
26099;DHT22;13860;52.370;6.764;2022-12-13T02:28:07;-3.00;81.70
26099;DHT22;13860;52.370;6.764;2022-12-13T02:31:41;-3.00;81.70
26099;DHT22;13860;52.370;6.764;2022-12-13T02:34:53;-3.10;81.70
26099;DHT22;13860;52.370;6.764;2022-12-13T02:38:03;-3.10;81.70
26099;DHT22;13860;52.370;6.764;2022-12-13T02:41:14;-3.10;81.70
26099;DHT22;13860;52.370;6.764;2022-12-13T02:44:22;-3.10;81.70
26099;DHT22;13860;52.370;6.764;2022-12-13T02:47:30;-3.10;82.30
26099;DHT22;13860;52.370;6.764;2022-12-13T02:50:36;-3.10;81.70
26099;DHT22;13860;52.370;6.764;2022-12-13T02:53:40;-3.10;81.70
26099;DHT22;13860;52.370;6.764;2022-12-13T02:56:52;-3.10;81.70
26099;DHT22;13860;52.370;6.764;2022-12-13T02:59:58;-3.20;81.60
26099;DHT22;13860;52.370;6.764;2022-12-13T03:03:13;-3.20;81.70
26099;DHT22;13860;52.370;6.764;2022-12-13T03:06:29;-3.20;81.70
26099;DHT22;13860;52.370;6.764;2022-12-13T03:09:45;-3.20;81.70
26099;DHT22;13860;52.370;6.764;2022-12-13T03:12:53;-3.20;81.60
26099;DHT22;13860;52.370;6.764;2022-12-13T03:16:18;-3.20;81.70
26099;DHT22;13860;52.370;6.764;2022-12-13T03:19:26;-3.20;81.70
26099;DHT22;13860;52.370;6.764;2022-12-13T03:22:33;-3.30;81.60
26099;DHT22;13860;52.370;6.764;2022-12-13T03:25:37;-3.20;81.60
26099;DHT22;13860;52.370;6.764;2022-12-13T03:28:40;-3.20;82.30
26099;DHT22;13860;52.370;6.764;2022-12-13T03:31:44;-3.30;81.60
26099;DHT22;13860;52.370;6.764;2022-12-13T03:34:50;-3.30;81.60
26099;DHT22;13860;52.370;6.764;2022-12-13T03:38:02;-3.30;81.60
26099;DHT22;13860;52.370;6.764;2022-12-13T03:41:09;-3.30;81.60
26099;DHT22;13860;52.370;6.764;2022-12-13T03:44:14;-3.30;81.60
26099;DHT22;13860;52.370;6.764;2022-12-13T03:47:18;-3.30;81.60
26099;DHT22;13860;52.370;6.764;2022-12-13T03:50:24;-3.30;81.60
26099;DHT22;13860;52.370;6.764;2022-12-13T03:53:29;-3.40;81.60
26099;DHT22;13860;52.370;6.764;2022-12-13T03:56:35;-3.40;81.60
26099;DHT22;13860;52.370;6.764;2022-12-13T03:59:39;-3.40;81.60
26099;DHT22;13860;52.370;6.764;2022-12-13T04:02:42;-3.40;81.60
26099;DHT22;13860;52.370;6.764;2022-12-13T04:05:48;-3.40;81.60
26099;DHT22;13860;52.370;6.764;2022-12-13T04:08:52;-3.40;81.60
26099;DHT22;13860;52.370;6.764;2022-12-13T04:11:56;-3.40;81.60
26099;DHT22;13860;52.370;6.764;2022-12-13T04:15:13;-3.50;81.50
26099;DHT22;13860;52.370;6.764;2022-12-13T04:18:18;-3.50;81.50
26099;DHT22;13860;52.370;6.764;2022-12-13T04:21:24;-3.50;81.50
26099;DHT22;13860;52.370;6.764;2022-12-13T04:24:29;-3.50;81.50
26099;DHT22;13860;52.370;6.764;2022-12-13T04:27:33;-3.50;81.60
26099;DHT22;13860;52.370;6.764;2022-12-13T04:30:38;-3.50;81.60
26099;DHT22;13860;52.370;6.764;2022-12-13T04:33:42;-3.50;81.50
26099;DHT22;13860;52.370;6.764;2022-12-13T04:36:47;-3.50;81.50
26099;DHT22;13860;52.370;6.764;2022-12-13T04:39:51;-3.50;81.50
26099;DHT22;13860;52.370;6.764;2022-12-13T04:43:02;-3.50;81.50
26099;DHT22;13860;52.370;6.764;2022-12-13T04:46:05;-3.60;81.50
26099;DHT22;13860;52.370;6.764;2022-12-13T04:49:09;-3.60;81.50
26099;DHT22;13860;52.370;6.764;2022-12-13T04:52:15;-3.60;81.50
26099;DHT22;13860;52.370;6.764;2022-12-13T04:55:23;-3.60;81.50
26099;DHT22;13860;52.370;6.764;2022-12-13T04:58:27;-3.60;81.50
26099;DHT22;13860;52.370;6.764;2022-12-13T05:01:31;-3.60;81.50
26099;DHT22;13860;52.370;6.764;2022-12-13T05:04:35;-3.70;81.50
26099;DHT22;13860;52.370;6.764;2022-12-13T05:07:40;-3.60;81.50
26099;DHT22;13860;52.370;6.764;2022-12-13T05:10:44;-3.70;81.50
26099;DHT22;13860;52.370;6.764;2022-12-13T05:13:48;-3.70;81.40
26099;DHT22;13860;52.370;6.764;2022-12-13T05:16:52;-3.70;81.50
26099;DHT22;13860;52.370;6.764;2022-12-13T05:19:56;-3.70;81.40
26099;DHT22;13860;52.370;6.764;2022-12-13T05:23:01;-3.70;81.40
26099;DHT22;13860;52.370;6.764;2022-12-13T05:26:05;-3.70;81.40
26099;DHT22;13860;52.370;6.764;2022-12-13T05:29:09;-3.70;81.40
26099;DHT22;13860;52.370;6.764;2022-12-13T05:32:13;-3.70;81.40
26099;DHT22;13860;52.370;6.764;2022-12-13T05:35:17;-3.80;81.40
26099;DHT22;13860;52.370;6.764;2022-12-13T05:38:27;-3.80;81.50
26099;DHT22;13860;52.370;6.764;2022-12-13T05:41:32;-3.80;81.40
26099;DHT22;13860;52.370;6.764;2022-12-13T05:44:36;-3.80;81.40
26099;DHT22;13860;52.370;6.764;2022-12-13T05:47:40;-3.80;81.40
26099;DHT22;13860;52.370;6.764;2022-12-13T05:50:44;-3.80;81.40
26099;DHT22;13860;52.370;6.764;2022-12-13T05:53:50;-3.80;81.40
26099;DHT22;13860;52.370;6.764;2022-12-13T05:56:54;-3.80;81.40
26099;DHT22;13860;52.370;6.764;2022-12-13T05:59:58;-3.80;81.40
26099;DHT22;13860;52.370;6.764;2022-12-13T06:03:02;-3.90;81.30
26099;DHT22;13860;52.370;6.764;2022-12-13T06:06:08;-3.90;81.30
26099;DHT22;13860;52.370;6.764;2022-12-13T06:09:14;-3.90;81.30
26099;DHT22;13860;52.370;6.764;2022-12-13T06:12:18;-3.90;81.40
26099;DHT22;13860;52.370;6.764;2022-12-13T06:15:33;-3.90;81.40
26099;DHT22;13860;52.370;6.764;2022-12-13T06:18:45;-3.90;81.30
26099;DHT22;13860;52.370;6.764;2022-12-13T06:21:54;-3.90;81.30
26099;DHT22;13860;52.370;6.764;2022-12-13T06:24:59;-3.90;81.40
26099;DHT22;13860;52.370;6.764;2022-12-13T06:28:04;-3.90;81.30
26099;DHT22;13860;52.370;6.764;2022-12-13T06:31:08;-3.90;81.30
26099;DHT22;13860;52.370;6.764;2022-12-13T06:34:12;-4.00;81.30
26099;DHT22;13860;52.370;6.764;2022-12-13T06:37:16;-4.00;81.30
26099;DHT22;13860;52.370;6.764;2022-12-13T06:40:22;-4.00;81.30
26099;DHT22;13860;52.370;6.764;2022-12-13T06:43:26;-4.00;81.30
26099;DHT22;13860;52.370;6.764;2022-12-13T06:46:29;-4.00;81.30
26099;DHT22;13860;52.370;6.764;2022-12-13T06:49:33;-4.00;81.30
26099;DHT22;13860;52.370;6.764;2022-12-13T06:52:37;-4.00;81.20
26099;DHT22;13860;52.370;6.764;2022-12-13T06:55:43;-4.00;81.30
26099;DHT22;13860;52.370;6.764;2022-12-13T06:58:47;-4.00;81.20
26099;DHT22;13860;52.370;6.764;2022-12-13T07:01:51;-4.00;81.30
26099;DHT22;13860;52.370;6.764;2022-12-13T07:05:05;-4.00;81.20
26099;DHT22;13860;52.370;6.764;2022-12-13T07:08:09;-4.10;81.20
26099;DHT22;13860;52.370;6.764;2022-12-13T07:11:16;-4.10;81.20
26099;DHT22;13860;52.370;6.764;2022-12-13T07:14:21;-4.10;81.20
26099;DHT22;13860;52.370;6.764;2022-12-13T07:17:25;-4.10;81.20
26099;DHT22;13860;52.370;6.764;2022-12-13T07:20:37;-4.10;81.20
26099;DHT22;13860;52.370;6.764;2022-12-13T07:23:41;-4.10;81.20
26099;DHT22;13860;52.370;6.764;2022-12-13T07:26:47;-4.10;81.20
26099;DHT22;13860;52.370;6.764;2022-12-13T07:29:51;-4.10;81.20
26099;DHT22;13860;52.370;6.764;2022-12-13T07:32:55;-4.00;81.30
26099;DHT22;13860;52.370;6.764;2022-12-13T07:36:02;-4.10;81.20
26099;DHT22;13860;52.370;6.764;2022-12-13T07:39:07;-4.10;81.20
26099;DHT22;13860;52.370;6.764;2022-12-13T07:42:13;-4.10;81.20
26099;DHT22;13860;52.370;6.764;2022-12-13T07:45:17;-4.10;81.20
26099;DHT22;13860;52.370;6.764;2022-12-13T07:48:21;-4.10;81.20
26099;DHT22;13860;52.370;6.764;2022-12-13T07:51:25;-4.10;81.20
26099;DHT22;13860;52.370;6.764;2022-12-13T07:54:29;-4.10;81.20
26099;DHT22;13860;52.370;6.764;2022-12-13T07:57:34;-4.10;81.30
26099;DHT22;13860;52.370;6.764;2022-12-13T08:00:40;-4.10;81.20
26099;DHT22;13860;52.370;6.764;2022-12-13T08:03:48;-4.10;81.30
26099;DHT22;13860;52.370;6.764;2022-12-13T08:06:51;-4.10;81.30
26099;DHT22;13860;52.370;6.764;2022-12-13T08:09:55;-4.10;81.20
26099;DHT22;13860;52.370;6.764;2022-12-13T08:13:03;-4.10;81.90
26099;DHT22;13860;52.370;6.764;2022-12-13T08:16:09;-4.10;81.30
26099;DHT22;13860;52.370;6.764;2022-12-13T08:19:30;-4.10;81.30
26099;DHT22;13860;52.370;6.764;2022-12-13T08:22:33;-4.10;81.30
26099;DHT22;13860;52.370;6.764;2022-12-13T08:25:37;-4.10;81.30
26099;DHT22;13860;52.370;6.764;2022-12-13T08:28:43;-4.10;81.30
26099;DHT22;13860;52.370;6.764;2022-12-13T08:31:47;-4.10;81.30
26099;DHT22;13860;52.370;6.764;2022-12-13T08:34:53;-4.00;81.40
26099;DHT22;13860;52.370;6.764;2022-12-13T08:37:57;-4.00;81.40
26099;DHT22;13860;52.370;6.764;2022-12-13T08:41:02;-4.00;81.40
26099;DHT22;13860;52.370;6.764;2022-12-13T08:44:07;-4.00;81.40
26099;DHT22;13860;52.370;6.764;2022-12-13T08:47:11;-3.90;81.40
26099;DHT22;13860;52.370;6.764;2022-12-13T08:50:26;-3.90;81.40
26099;DHT22;13860;52.370;6.764;2022-12-13T08:53:30;-3.90;81.50
26099;DHT22;13860;52.370;6.764;2022-12-13T08:56:42;-3.80;81.50
26099;DHT22;13860;52.370;6.764;2022-12-13T08:59:48;-3.80;81.50
26099;DHT22;13860;52.370;6.764;2022-12-13T09:02:55;-3.80;81.50
26099;DHT22;13860;52.370;6.764;2022-12-13T09:06:06;-3.70;81.60
26099;DHT22;13860;52.370;6.764;2022-12-13T09:09:10;-3.70;81.50
26099;DHT22;13860;52.370;6.764;2022-12-13T09:12:14;-3.70;81.50
26099;DHT22;13860;52.370;6.764;2022-12-13T09:15:38;-3.60;81.60
26099;DHT22;13860;52.370;6.764;2022-12-13T09:18:47;-3.60;81.60
26099;DHT22;13860;52.370;6.764;2022-12-13T09:21:56;-3.50;81.70
26099;DHT22;13860;52.370;6.764;2022-12-13T09:25:05;-3.50;81.60
26099;DHT22;13860;52.370;6.764;2022-12-13T09:28:16;-3.50;81.60
26099;DHT22;13860;52.370;6.764;2022-12-13T09:31:22;-3.50;81.60
26099;DHT22;13860;52.370;6.764;2022-12-13T09:34:26;-3.40;81.70
26099;DHT22;13860;52.370;6.764;2022-12-13T09:37:30;-3.40;81.80
26099;DHT22;13860;52.370;6.764;2022-12-13T09:40:36;-3.40;81.70
26099;DHT22;13860;52.370;6.764;2022-12-13T09:43:42;-3.30;81.90
26099;DHT22;13860;52.370;6.764;2022-12-13T09:46:50;-3.20;81.90
26099;DHT22;13860;52.370;6.764;2022-12-13T09:50:07;-3.20;81.90
26099;DHT22;13860;52.370;6.764;2022-12-13T09:53:17;-3.20;81.90
26099;DHT22;13860;52.370;6.764;2022-12-13T09:56:23;-3.10;81.90
26099;DHT22;13860;52.370;6.764;2022-12-13T09:59:30;-3.00;82.00
26099;DHT22;13860;52.370;6.764;2022-12-13T10:02:41;-3.00;82.00
26099;DHT22;13860;52.370;6.764;2022-12-13T10:05:53;-2.90;82.10
26099;DHT22;13860;52.370;6.764;2022-12-13T10:08:59;-2.80;82.10
26099;DHT22;13860;52.370;6.764;2022-12-13T10:12:03;-2.70;82.20
26099;DHT22;13860;52.370;6.764;2022-12-13T10:15:10;-2.60;82.40
26099;DHT22;13860;52.370;6.764;2022-12-13T10:18:31;-2.50;82.40
26099;DHT22;13860;52.370;6.764;2022-12-13T10:21:38;-2.40;82.40
26099;DHT22;13860;52.370;6.764;2022-12-13T10:24:49;-2.30;82.40
26099;DHT22;13860;52.370;6.764;2022-12-13T10:27:53;-2.10;82.50
26099;DHT22;13860;52.370;6.764;2022-12-13T10:30:57;-2.00;82.50
26099;DHT22;13860;52.370;6.764;2022-12-13T10:34:03;-1.90;82.50
26099;DHT22;13860;52.370;6.764;2022-12-13T10:37:23;-1.80;82.50
26099;DHT22;13860;52.370;6.764;2022-12-13T10:40:32;-1.80;82.40
26099;DHT22;13860;52.370;6.764;2022-12-13T10:43:39;-1.70;82.40
26099;DHT22;13860;52.370;6.764;2022-12-13T10:46:48;-1.60;82.40
26099;DHT22;13860;52.370;6.764;2022-12-13T10:49:56;-1.60;82.40
26099;DHT22;13860;52.370;6.764;2022-12-13T10:53:04;-1.50;82.40
26099;DHT22;13860;52.370;6.764;2022-12-13T10:56:10;-1.50;82.40
26099;DHT22;13860;52.370;6.764;2022-12-13T10:59:26;-1.40;82.40
26099;DHT22;13860;52.370;6.764;2022-12-13T11:02:33;-1.40;82.40
26099;DHT22;13860;52.370;6.764;2022-12-13T11:05:39;-1.40;82.40
26099;DHT22;13860;52.370;6.764;2022-12-13T11:08:44;-1.30;82.50
26099;DHT22;13860;52.370;6.764;2022-12-13T11:11:49;-1.30;82.50
26099;DHT22;13860;52.370;6.764;2022-12-13T11:15:02;-1.30;82.50
26099;DHT22;13860;52.370;6.764;2022-12-13T11:18:18;-1.20;82.50
26099;DHT22;13860;52.370;6.764;2022-12-13T11:21:27;-1.20;82.50
26099;DHT22;13860;52.370;6.764;2022-12-13T11:24:36;-1.10;82.60
26099;DHT22;13860;52.370;6.764;2022-12-13T11:27:53;-1.10;82.60
26099;DHT22;13860;52.370;6.764;2022-12-13T11:31:10;-1.00;82.60
26099;DHT22;13860;52.370;6.764;2022-12-13T11:34:22;-1.00;82.60
26099;DHT22;13860;52.370;6.764;2022-12-13T11:37:35;-1.00;82.60
26099;DHT22;13860;52.370;6.764;2022-12-13T11:40:43;-0.90;82.60
26099;DHT22;13860;52.370;6.764;2022-12-13T11:43:52;-0.90;82.70
26099;DHT22;13860;52.370;6.764;2022-12-13T11:46:59;-0.80;82.60
26099;DHT22;13860;52.370;6.764;2022-12-13T11:50:12;-0.80;82.70
26099;DHT22;13860;52.370;6.764;2022-12-13T11:53:43;-0.70;82.80
26099;DHT22;13860;52.370;6.764;2022-12-13T11:56:48;-0.70;82.80
26099;DHT22;13860;52.370;6.764;2022-12-13T12:00:05;-0.70;82.80
26099;DHT22;13860;52.370;6.764;2022-12-13T12:03:16;-0.60;82.80
26099;DHT22;13860;52.370;6.764;2022-12-13T12:06:25;-0.60;82.80
26099;DHT22;13860;52.370;6.764;2022-12-13T12:09:33;-0.60;82.70
26099;DHT22;13860;52.370;6.764;2022-12-13T12:12:41;-0.60;82.80
26099;DHT22;13860;52.370;6.764;2022-12-13T12:15:50;-0.50;82.80
26099;DHT22;13860;52.370;6.764;2022-12-13T12:18:56;-0.50;82.80
26099;DHT22;13860;52.370;6.764;2022-12-13T12:22:14;-0.50;82.80
26099;DHT22;13860;52.370;6.764;2022-12-13T12:25:32;-0.40;82.80
26099;DHT22;13860;52.370;6.764;2022-12-13T12:32:22;-0.40;82.80
26099;DHT22;13860;52.370;6.764;2022-12-13T12:35:43;-0.40;82.80
26099;DHT22;13860;52.370;6.764;2022-12-13T12:39:23;-0.30;82.90
26099;DHT22;13860;52.370;6.764;2022-12-13T12:42:45;-0.30;82.90
26099;DHT22;13860;52.370;6.764;2022-12-13T12:46:34;-0.30;82.90
26099;DHT22;13860;52.370;6.764;2022-12-13T12:50:11;-0.20;82.90
26099;DHT22;13860;52.370;6.764;2022-12-13T12:53:36;-0.20;82.80
26099;DHT22;13860;52.370;6.764;2022-12-13T12:56:49;-0.20;82.90
26099;DHT22;13860;52.370;6.764;2022-12-13T13:00:02;-0.20;82.90
26099;DHT22;13860;52.370;6.764;2022-12-13T13:03:14;-0.10;82.90
26099;DHT22;13860;52.370;6.764;2022-12-13T13:06:27;-0.10;82.90
26099;DHT22;13860;52.370;6.764;2022-12-13T13:09:33;-0.10;82.90
26099;DHT22;13860;52.370;6.764;2022-12-13T13:12:40;-0.10;82.90
26099;DHT22;13860;52.370;6.764;2022-12-13T13:15:56;-0.10;82.80
26099;DHT22;13860;52.370;6.764;2022-12-13T13:19:01;0.00;82.90
26099;DHT22;13860;52.370;6.764;2022-12-13T13:22:27;0.00;82.90
26099;DHT22;13860;52.370;6.764;2022-12-13T13:25:34;0.00;82.90
26099;DHT22;13860;52.370;6.764;2022-12-13T13:29:28;0.00;83.50
26099;DHT22;13860;52.370;6.764;2022-12-13T13:32:38;0.00;82.80
26099;DHT22;13860;52.370;6.764;2022-12-13T13:35:45;0.00;82.80
26099;DHT22;13860;52.370;6.764;2022-12-13T13:38:52;0.10;82.90
26099;DHT22;13860;52.370;6.764;2022-12-13T13:42:17;0.00;82.80
26099;DHT22;13860;52.370;6.764;2022-12-13T13:45:22;0.10;82.90
26099;DHT22;13860;52.370;6.764;2022-12-13T13:52:05;0.10;82.80
26099;DHT22;13860;52.370;6.764;2022-12-13T13:55:48;0.10;82.80
26099;DHT22;13860;52.370;6.764;2022-12-13T14:03:22;0.10;82.80
26099;DHT22;13860;52.370;6.764;2022-12-13T14:21:05;0.10;82.80
26099;DHT22;13860;52.370;6.764;2022-12-13T14:24:17;0.10;82.70
26099;DHT22;13860;52.370;6.764;2022-12-13T14:27:38;0.00;82.80
26099;DHT22;13860;52.370;6.764;2022-12-13T14:30:45;0.00;82.70
26099;DHT22;13860;52.370;6.764;2022-12-13T14:33:59;0.00;82.80
26099;DHT22;13860;52.370;6.764;2022-12-13T14:37:16;0.00;82.80
26099;DHT22;13860;52.370;6.764;2022-12-13T14:40:27;0.00;82.80
26099;DHT22;13860;52.370;6.764;2022-12-13T14:43:34;-0.10;82.80
26099;DHT22;13860;52.370;6.764;2022-12-13T14:46:47;-0.10;82.70
26099;DHT22;13860;52.370;6.764;2022-12-13T14:49:53;-0.10;82.80
26099;DHT22;13860;52.370;6.764;2022-12-13T14:53:00;-0.10;82.80
26099;DHT22;13860;52.370;6.764;2022-12-13T14:56:07;-0.10;82.80
26099;DHT22;13860;52.370;6.764;2022-12-13T14:59:30;-0.20;82.80
26099;DHT22;13860;52.370;6.764;2022-12-13T15:02:35;-0.20;82.70
26099;DHT22;13860;52.370;6.764;2022-12-13T15:05:41;-0.30;83.30
26099;DHT22;13860;52.370;6.764;2022-12-13T15:08:51;-0.30;82.70
26099;DHT22;13860;52.370;6.764;2022-12-13T15:11:57;-0.30;82.70
26099;DHT22;13860;52.370;6.764;2022-12-13T15:15:29;-0.30;82.70
26099;DHT22;13860;52.370;6.764;2022-12-13T15:18:33;-0.40;82.70
26099;DHT22;13860;52.370;6.764;2022-12-13T15:21:40;-0.40;82.70
26099;DHT22;13860;52.370;6.764;2022-12-13T15:24:53;-0.50;82.70
26099;DHT22;13860;52.370;6.764;2022-12-13T15:28:05;-0.50;82.70
26099;DHT22;13860;52.370;6.764;2022-12-13T15:31:12;-0.50;82.70
26099;DHT22;13860;52.370;6.764;2022-12-13T15:34:22;-0.50;82.70
26099;DHT22;13860;52.370;6.764;2022-12-13T15:37:31;-0.60;82.70
26099;DHT22;13860;52.370;6.764;2022-12-13T15:40:36;-0.60;82.70
26099;DHT22;13860;52.370;6.764;2022-12-13T15:43:42;-0.70;82.70
26099;DHT22;13860;52.370;6.764;2022-12-13T15:46:50;-0.70;82.70
26099;DHT22;13860;52.370;6.764;2022-12-13T15:49:56;-0.70;82.70
26099;DHT22;13860;52.370;6.764;2022-12-13T15:53:04;-0.70;82.80
26099;DHT22;13860;52.370;6.764;2022-12-13T15:56:27;-0.70;82.80
26099;DHT22;13860;52.370;6.764;2022-12-13T15:59:34;-0.80;82.70
26099;DHT22;13860;52.370;6.764;2022-12-13T16:02:49;-0.80;82.70
26099;DHT22;13860;52.370;6.764;2022-12-13T16:05:55;-0.80;82.70
26099;DHT22;13860;52.370;6.764;2022-12-13T16:09:01;-0.80;82.70
26099;DHT22;13860;52.370;6.764;2022-12-13T16:12:19;-0.80;82.70
26099;DHT22;13860;52.370;6.764;2022-12-13T16:15:27;-0.90;82.70
26099;DHT22;13860;52.370;6.764;2022-12-13T16:18:41;-0.90;82.70
26099;DHT22;13860;52.370;6.764;2022-12-13T16:21:46;-0.90;82.70
26099;DHT22;13860;52.370;6.764;2022-12-13T16:24:50;-0.90;82.70
26099;DHT22;13860;52.370;6.764;2022-12-13T16:27:56;-1.00;82.70
26099;DHT22;13860;52.370;6.764;2022-12-13T16:31:11;-1.00;82.70
26099;DHT22;13860;52.370;6.764;2022-12-13T16:34:19;-1.00;82.70
26099;DHT22;13860;52.370;6.764;2022-12-13T16:37:27;-1.00;82.70
26099;DHT22;13860;52.370;6.764;2022-12-13T16:40:31;-1.10;82.70
26099;DHT22;13860;52.370;6.764;2022-12-13T16:43:38;-1.10;82.70
26099;DHT22;13860;52.370;6.764;2022-12-13T16:46:43;-1.10;83.30
26099;DHT22;13860;52.370;6.764;2022-12-13T16:50:13;-1.10;82.70
26099;DHT22;13860;52.370;6.764;2022-12-13T16:53:18;-1.20;82.60
26099;DHT22;13860;52.370;6.764;2022-12-13T16:56:21;-1.20;82.70
26099;DHT22;13860;52.370;6.764;2022-12-13T16:59:26;-1.20;82.70
26099;DHT22;13860;52.370;6.764;2022-12-13T17:02:29;-1.20;82.70
26099;DHT22;13860;52.370;6.764;2022-12-13T17:05:35;-1.20;82.70
26099;DHT22;13860;52.370;6.764;2022-12-13T17:08:39;-1.20;82.70
26099;DHT22;13860;52.370;6.764;2022-12-13T17:11:43;-1.20;82.70
26099;DHT22;13860;52.370;6.764;2022-12-13T17:14:48;-1.30;82.70
26099;DHT22;13860;52.370;6.764;2022-12-13T17:17:52;-1.30;82.60
26099;DHT22;13860;52.370;6.764;2022-12-13T17:21:04;-1.20;82.70
26099;DHT22;13860;52.370;6.764;2022-12-13T17:24:08;-1.30;82.70
26099;DHT22;13860;52.370;6.764;2022-12-13T17:27:12;-1.30;83.30
26099;DHT22;13860;52.370;6.764;2022-12-13T17:30:17;-1.30;82.70
26099;DHT22;13860;52.370;6.764;2022-12-13T17:33:21;-1.30;82.70
26099;DHT22;13860;52.370;6.764;2022-12-13T17:36:27;-1.30;82.70
26099;DHT22;13860;52.370;6.764;2022-12-13T17:39:31;-1.30;82.70
26099;DHT22;13860;52.370;6.764;2022-12-13T17:42:35;-1.30;82.70
26099;DHT22;13860;52.370;6.764;2022-12-13T17:45:39;-1.30;82.70
26099;DHT22;13860;52.370;6.764;2022-12-13T17:48:44;-1.30;82.70
26099;DHT22;13860;52.370;6.764;2022-12-13T17:51:50;-1.20;82.80
26099;DHT22;13860;52.370;6.764;2022-12-13T17:54:54;-1.20;82.70
26099;DHT22;13860;52.370;6.764;2022-12-13T17:58:00;-1.20;82.80
26099;DHT22;13860;52.370;6.764;2022-12-13T18:01:10;-1.20;82.70
26099;DHT22;13860;52.370;6.764;2022-12-13T18:04:14;-1.20;82.70
26099;DHT22;13860;52.370;6.764;2022-12-13T18:07:20;-1.20;82.70
26099;DHT22;13860;52.370;6.764;2022-12-13T18:10:24;-1.20;82.80
26099;DHT22;13860;52.370;6.764;2022-12-13T18:13:31;-1.20;82.70
26099;DHT22;13860;52.370;6.764;2022-12-13T18:16:35;-1.20;82.70
26099;DHT22;13860;52.370;6.764;2022-12-13T18:19:40;-1.20;82.80
26099;DHT22;13860;52.370;6.764;2022-12-13T18:22:47;-1.20;82.70
26099;DHT22;13860;52.370;6.764;2022-12-13T18:25:58;-1.20;82.70
26099;DHT22;13860;52.370;6.764;2022-12-13T18:29:02;-1.20;82.70
26099;DHT22;13860;52.370;6.764;2022-12-13T18:32:07;-1.20;82.70
26099;DHT22;13860;52.370;6.764;2022-12-13T18:35:10;-1.10;82.80
26099;DHT22;13860;52.370;6.764;2022-12-13T18:38:16;-1.20;82.70
26099;DHT22;13860;52.370;6.764;2022-12-13T18:41:22;-1.10;82.80
26099;DHT22;13860;52.370;6.764;2022-12-13T18:44:28;-1.20;82.70
26099;DHT22;13860;52.370;6.764;2022-12-13T18:47:32;-1.20;82.70
26099;DHT22;13860;52.370;6.764;2022-12-13T18:50:36;-1.20;82.70
26099;DHT22;13860;52.370;6.764;2022-12-13T18:53:41;-1.20;82.70
26099;DHT22;13860;52.370;6.764;2022-12-13T18:56:45;-1.20;82.70
26099;DHT22;13860;52.370;6.764;2022-12-13T18:59:49;-1.10;82.80
26099;DHT22;13860;52.370;6.764;2022-12-13T19:02:55;-1.10;82.80
26099;DHT22;13860;52.370;6.764;2022-12-13T19:06:00;-1.20;82.70
26099;DHT22;13860;52.370;6.764;2022-12-13T19:09:06;-1.10;82.80
26099;DHT22;13860;52.370;6.764;2022-12-13T19:12:09;-1.10;82.80
26099;DHT22;13860;52.370;6.764;2022-12-13T19:19:06;-1.10;82.80
26099;DHT22;13860;52.370;6.764;2022-12-13T19:22:09;-1.10;82.80
26099;DHT22;13860;52.370;6.764;2022-12-13T19:25:15;-1.10;82.70
26099;DHT22;13860;52.370;6.764;2022-12-13T19:28:20;-1.10;82.70
26099;DHT22;13860;52.370;6.764;2022-12-13T19:31:25;-1.10;82.70
26099;DHT22;13860;52.370;6.764;2022-12-13T19:34:33;-1.10;82.80
26099;DHT22;13860;52.370;6.764;2022-12-13T19:37:36;-1.10;82.80
26099;DHT22;13860;52.370;6.764;2022-12-13T19:40:43;-1.10;82.90
26099;DHT22;13860;52.370;6.764;2022-12-13T19:43:47;-1.10;82.70
26099;DHT22;13860;52.370;6.764;2022-12-13T19:46:54;-1.10;82.80
26099;DHT22;13860;52.370;6.764;2022-12-13T19:49:59;-1.10;82.80
26099;DHT22;13860;52.370;6.764;2022-12-13T19:53:03;-1.10;82.80
26099;DHT22;13860;52.370;6.764;2022-12-13T19:56:11;-1.10;82.80
26099;DHT22;13860;52.370;6.764;2022-12-13T19:59:15;-1.10;82.80
26099;DHT22;13860;52.370;6.764;2022-12-13T20:02:19;-1.10;82.80
26099;DHT22;13860;52.370;6.764;2022-12-13T20:05:23;-1.10;82.80
26099;DHT22;13860;52.370;6.764;2022-12-13T20:08:27;-1.10;82.80
26099;DHT22;13860;52.370;6.764;2022-12-13T20:11:32;-1.10;82.80
26099;DHT22;13860;52.370;6.764;2022-12-13T20:14:36;-1.10;82.70
26099;DHT22;13860;52.370;6.764;2022-12-13T20:17:40;-1.10;82.80
26099;DHT22;13860;52.370;6.764;2022-12-13T20:20:44;-1.10;82.80